sensor_id;sensor_type;location;lat;lon;timestamp;temperature;humidity
38500;DHT22;24269;51.894;4.622;2022-11-04T00:01:41;11.50;99.90
38500;DHT22;24269;51.894;4.622;2022-11-04T00:04:07;11.50;99.90
38500;DHT22;24269;51.894;4.622;2022-11-04T00:06:33;11.50;99.90
38500;DHT22;24269;51.894;4.622;2022-11-04T00:08:59;11.40;99.90
38500;DHT22;24269;51.894;4.622;2022-11-04T00:11:25;11.50;99.90
38500;DHT22;24269;51.894;4.622;2022-11-04T00:14:12;11.40;99.90
38500;DHT22;24269;51.894;4.622;2022-11-04T00:16:38;11.40;99.90
38500;DHT22;24269;51.894;4.622;2022-11-04T00:19:23;11.30;99.90
38500;DHT22;24269;51.894;4.622;2022-11-04T00:21:49;11.20;99.90
38500;DHT22;24269;51.894;4.622;2022-11-04T00:24:34;11.30;99.90
38500;DHT22;24269;51.894;4.622;2022-11-04T00:27:20;11.30;99.90
38500;DHT22;24269;51.894;4.622;2022-11-04T00:30:07;11.20;99.90
38500;DHT22;24269;51.894;4.622;2022-11-04T00:32:34;11.10;99.90
38500;DHT22;24269;51.894;4.622;2022-11-04T00:35:20;11.00;99.90
38500;DHT22;24269;51.894;4.622;2022-11-04T00:37:46;11.00;99.90
38500;DHT22;24269;51.894;4.622;2022-11-04T00:40:14;11.00;99.90
38500;DHT22;24269;51.894;4.622;2022-11-04T00:42:43;11.00;99.90
38500;DHT22;24269;51.894;4.622;2022-11-04T00:45:09;11.00;99.90
38500;DHT22;24269;51.894;4.622;2022-11-04T00:47:35;11.00;99.90
38500;DHT22;24269;51.894;4.622;2022-11-04T00:50:00;11.00;99.90
38500;DHT22;24269;51.894;4.622;2022-11-04T00:52:26;11.00;99.90
38500;DHT22;24269;51.894;4.622;2022-11-04T00:54:52;10.90;99.90
38500;DHT22;24269;51.894;4.622;2022-11-04T00:57:17;10.90;99.90
38500;DHT22;24269;51.894;4.622;2022-11-04T00:59:43;10.80;99.90
38500;DHT22;24269;51.894;4.622;2022-11-04T01:02:10;10.80;99.90
38500;DHT22;24269;51.894;4.622;2022-11-04T01:04:37;10.70;99.90
38500;DHT22;24269;51.894;4.622;2022-11-04T01:07:03;10.70;99.90
38500;DHT22;24269;51.894;4.622;2022-11-04T01:09:29;10.70;99.90
38500;DHT22;24269;51.894;4.622;2022-11-04T01:11:54;10.60;99.90
38500;DHT22;24269;51.894;4.622;2022-11-04T01:14:20;10.70;99.90
38500;DHT22;24269;51.894;4.622;2022-11-04T01:16:48;10.70;99.90
38500;DHT22;24269;51.894;4.622;2022-11-04T01:19:14;10.70;99.90
38500;DHT22;24269;51.894;4.622;2022-11-04T01:21:40;10.60;99.90
38500;DHT22;24269;51.894;4.622;2022-11-04T01:24:06;10.60;99.90
38500;DHT22;24269;51.894;4.622;2022-11-04T01:26:32;10.60;99.90
38500;DHT22;24269;51.894;4.622;2022-11-04T01:28:58;10.50;99.90
38500;DHT22;24269;51.894;4.622;2022-11-04T01:31:29;10.50;99.90
38500;DHT22;24269;51.894;4.622;2022-11-04T01:33:56;10.50;99.90
38500;DHT22;24269;51.894;4.622;2022-11-04T01:36:22;10.40;99.90
38500;DHT22;24269;51.894;4.622;2022-11-04T01:38:48;10.40;99.90
38500;DHT22;24269;51.894;4.622;2022-11-04T01:41:29;10.30;99.90
38500;DHT22;24269;51.894;4.622;2022-11-04T01:44:49;10.30;99.90
38500;DHT22;24269;51.894;4.622;2022-11-04T01:49:41;10.30;99.90
38500;DHT22;24269;51.894;4.622;2022-11-04T01:52:12;10.30;99.90
38500;DHT22;24269;51.894;4.622;2022-11-04T01:54:42;10.30;99.90
38500;DHT22;24269;51.894;4.622;2022-11-04T01:57:12;10.30;99.90
38500;DHT22;24269;51.894;4.622;2022-11-04T01:59:40;10.20;99.90
38500;DHT22;24269;51.894;4.622;2022-11-04T02:02:06;10.20;99.90
38500;DHT22;24269;51.894;4.622;2022-11-04T02:04:32;10.20;99.90
38500;DHT22;24269;51.894;4.622;2022-11-04T02:07:06;10.10;99.90
38500;DHT22;24269;51.894;4.622;2022-11-04T02:09:34;10.10;99.90
38500;DHT22;24269;51.894;4.622;2022-11-04T02:12:00;10.00;99.90
38500;DHT22;24269;51.894;4.622;2022-11-04T02:14:46;10.00;99.90
38500;DHT22;24269;51.894;4.622;2022-11-04T02:33:46;9.80;99.90
38500;DHT22;24269;51.894;4.622;2022-11-04T02:36:28;9.70;99.90
38500;DHT22;24269;51.894;4.622;2022-11-04T02:39:01;9.70;99.90
38500;DHT22;24269;51.894;4.622;2022-11-04T02:44:19;9.70;99.90
38500;DHT22;24269;51.894;4.622;2022-11-04T02:46:53;9.70;99.90
38500;DHT22;24269;51.894;4.622;2022-11-04T02:52:09;9.70;99.90
38500;DHT22;24269;51.894;4.622;2022-11-04T02:54:46;9.70;99.90
38500;DHT22;24269;51.894;4.622;2022-11-04T02:57:17;9.70;99.90
38500;DHT22;24269;51.894;4.622;2022-11-04T02:59:52;9.70;99.90
38500;DHT22;24269;51.894;4.622;2022-11-04T03:02:38;9.70;99.90
38500;DHT22;24269;51.894;4.622;2022-11-04T03:05:09;9.70;99.90
38500;DHT22;24269;51.894;4.622;2022-11-04T03:07:39;9.70;99.90
38500;DHT22;24269;51.894;4.622;2022-11-04T03:10:21;9.70;99.90
38500;DHT22;24269;51.894;4.622;2022-11-04T03:12:55;9.70;99.90
38500;DHT22;24269;51.894;4.622;2022-11-04T03:15:27;9.70;99.90
38500;DHT22;24269;51.894;4.622;2022-11-04T03:21:10;9.80;99.90
38500;DHT22;24269;51.894;4.622;2022-11-04T03:23:37;9.80;99.90
38500;DHT22;24269;51.894;4.622;2022-11-04T03:26:13;9.80;99.90
38500;DHT22;24269;51.894;4.622;2022-11-04T03:28:44;9.80;99.90
38500;DHT22;24269;51.894;4.622;2022-11-04T03:31:48;9.80;99.90
38500;DHT22;24269;51.894;4.622;2022-11-04T03:34:04;9.80;99.90
38500;DHT22;24269;51.894;4.622;2022-11-04T03:36:30;9.80;99.90
38500;DHT22;24269;51.894;4.622;2022-11-04T03:38:56;9.80;99.90
38500;DHT22;24269;51.894;4.622;2022-11-04T03:41:49;9.80;99.90
38500;DHT22;24269;51.894;4.622;2022-11-04T03:44:15;9.80;99.90
38500;DHT22;24269;51.894;4.622;2022-11-04T03:46:41;9.80;99.90
38500;DHT22;24269;51.894;4.622;2022-11-04T03:49:08;9.80;99.90
38500;DHT22;24269;51.894;4.622;2022-11-04T03:51:34;9.80;99.90
38500;DHT22;24269;51.894;4.622;2022-11-04T03:54:00;9.80;99.90
38500;DHT22;24269;51.894;4.622;2022-11-04T03:56:39;9.70;99.90
38500;DHT22;24269;51.894;4.622;2022-11-04T04:02:21;9.60;99.90
38500;DHT22;24269;51.894;4.622;2022-11-04T04:05:01;9.60;99.90
38500;DHT22;24269;51.894;4.622;2022-11-04T04:07:39;9.50;99.90
38500;DHT22;24269;51.894;4.622;2022-11-04T04:12:58;9.40;99.90
38500;DHT22;24269;51.894;4.622;2022-11-04T04:15:29;9.40;99.90
38500;DHT22;24269;51.894;4.622;2022-11-04T04:18:02;9.40;99.90
38500;DHT22;24269;51.894;4.622;2022-11-04T04:20:33;9.30;99.90
38500;DHT22;24269;51.894;4.622;2022-11-04T04:23:16;9.40;99.90
38500;DHT22;24269;51.894;4.622;2022-11-04T04:26:04;9.30;99.90
38500;DHT22;24269;51.894;4.622;2022-11-04T04:28:52;9.30;99.90
38500;DHT22;24269;51.894;4.622;2022-11-04T04:31:19;9.20;99.90
38500;DHT22;24269;51.894;4.622;2022-11-04T04:34:07;9.20;99.90
38500;DHT22;24269;51.894;4.622;2022-11-04T04:36:46;9.20;99.90
38500;DHT22;24269;51.894;4.622;2022-11-04T04:39:16;9.20;99.90
38500;DHT22;24269;51.894;4.622;2022-11-04T04:42:02;9.30;99.90
38500;DHT22;24269;51.894;4.622;2022-11-04T04:44:47;9.30;99.90
38500;DHT22;24269;51.894;4.622;2022-11-04T04:47:26;9.30;99.90
38500;DHT22;24269;51.894;4.622;2022-11-04T04:49:55;9.30;99.90
38500;DHT22;24269;51.894;4.622;2022-11-04T04:52:23;9.30;99.90
38500;DHT22;24269;51.894;4.622;2022-11-04T04:54:49;9.30;99.90
38500;DHT22;24269;51.894;4.622;2022-11-04T04:57:15;9.30;99.90
38500;DHT22;24269;51.894;4.622;2022-11-04T04:59:41;9.20;99.90
38500;DHT22;24269;51.894;4.622;2022-11-04T05:02:07;9.30;99.90
38500;DHT22;24269;51.894;4.622;2022-11-04T05:04:33;9.20;99.90
38500;DHT22;24269;51.894;4.622;2022-11-04T05:06:58;9.20;99.90
38500;DHT22;24269;51.894;4.622;2022-11-04T05:09:24;9.20;99.90
38500;DHT22;24269;51.894;4.622;2022-11-04T05:11:49;9.20;99.90
38500;DHT22;24269;51.894;4.622;2022-11-04T05:14:15;9.20;99.90
38500;DHT22;24269;51.894;4.622;2022-11-04T05:16:40;9.20;99.90
38500;DHT22;24269;51.894;4.622;2022-11-04T05:19:06;9.20;99.90
38500;DHT22;24269;51.894;4.622;2022-11-04T05:21:31;9.20;99.90
38500;DHT22;24269;51.894;4.622;2022-11-04T05:23:57;9.20;99.90
38500;DHT22;24269;51.894;4.622;2022-11-04T05:26:23;9.20;99.90
38500;DHT22;24269;51.894;4.622;2022-11-04T05:28:48;9.20;99.90
38500;DHT22;24269;51.894;4.622;2022-11-04T05:31:14;9.20;99.90
38500;DHT22;24269;51.894;4.622;2022-11-04T05:33:39;9.20;99.90
38500;DHT22;24269;51.894;4.622;2022-11-04T05:38:32;9.00;99.90
38500;DHT22;24269;51.894;4.622;2022-11-04T05:40:58;9.10;99.90
38500;DHT22;24269;51.894;4.622;2022-11-04T05:43:23;9.10;99.90
38500;DHT22;24269;51.894;4.622;2022-11-04T05:45:49;9.10;99.90
38500;DHT22;24269;51.894;4.622;2022-11-04T05:48:15;9.10;99.90
38500;DHT22;24269;51.894;4.622;2022-11-04T05:50:41;9.00;99.90
38500;DHT22;24269;51.894;4.622;2022-11-04T05:53:06;9.00;99.90
38500;DHT22;24269;51.894;4.622;2022-11-04T05:55:32;9.00;99.90
38500;DHT22;24269;51.894;4.622;2022-11-04T05:57:58;9.10;99.90
38500;DHT22;24269;51.894;4.622;2022-11-04T06:00:24;9.10;99.90
38500;DHT22;24269;51.894;4.622;2022-11-04T06:02:50;9.10;99.90
38500;DHT22;24269;51.894;4.622;2022-11-04T06:05:16;9.10;99.90
38500;DHT22;24269;51.894;4.622;2022-11-04T06:07:42;9.20;99.90
38500;DHT22;24269;51.894;4.622;2022-11-04T06:10:07;9.20;99.90
38500;DHT22;24269;51.894;4.622;2022-11-04T06:12:33;9.20;99.90
38500;DHT22;24269;51.894;4.622;2022-11-04T06:14:59;9.20;99.90
38500;DHT22;24269;51.894;4.622;2022-11-04T06:17:24;9.30;99.90
38500;DHT22;24269;51.894;4.622;2022-11-04T06:19:50;9.30;99.90
38500;DHT22;24269;51.894;4.622;2022-11-04T06:22:17;9.40;99.90
38500;DHT22;24269;51.894;4.622;2022-11-04T06:24:44;9.40;99.90
38500;DHT22;24269;51.894;4.622;2022-11-04T06:27:10;9.40;99.90
38500;DHT22;24269;51.894;4.622;2022-11-04T06:29:36;9.40;99.90
38500;DHT22;24269;51.894;4.622;2022-11-04T06:32:07;9.40;99.90
38500;DHT22;24269;51.894;4.622;2022-11-04T06:34:32;9.50;99.90
38500;DHT22;24269;51.894;4.622;2022-11-04T06:36:58;9.50;99.90
38500;DHT22;24269;51.894;4.622;2022-11-04T06:39:24;9.50;99.90
38500;DHT22;24269;51.894;4.622;2022-11-04T06:41:49;9.60;99.90
38500;DHT22;24269;51.894;4.622;2022-11-04T06:44:15;9.60;99.90
38500;DHT22;24269;51.894;4.622;2022-11-04T06:46:41;9.60;99.90
38500;DHT22;24269;51.894;4.622;2022-11-04T06:49:13;9.60;99.90
38500;DHT22;24269;51.894;4.622;2022-11-04T06:51:39;9.60;99.90
38500;DHT22;24269;51.894;4.622;2022-11-04T06:54:05;9.60;99.90
38500;DHT22;24269;51.894;4.622;2022-11-04T06:56:30;9.60;99.90
38500;DHT22;24269;51.894;4.622;2022-11-04T06:58:56;9.60;99.90
38500;DHT22;24269;51.894;4.622;2022-11-04T07:01:26;9.60;99.90
38500;DHT22;24269;51.894;4.622;2022-11-04T07:03:54;9.60;99.90
38500;DHT22;24269;51.894;4.622;2022-11-04T07:06:20;9.70;99.90
38500;DHT22;24269;51.894;4.622;2022-11-04T07:08:48;9.70;99.90
38500;DHT22;24269;51.894;4.622;2022-11-04T07:11:15;9.70;99.90
38500;DHT22;24269;51.894;4.622;2022-11-04T07:13:41;9.80;99.90
38500;DHT22;24269;51.894;4.622;2022-11-04T07:16:08;9.80;99.90
38500;DHT22;24269;51.894;4.622;2022-11-04T07:18:35;9.80;99.90
38500;DHT22;24269;51.894;4.622;2022-11-04T07:21:02;9.80;99.90
38500;DHT22;24269;51.894;4.622;2022-11-04T07:23:29;9.80;99.90
38500;DHT22;24269;51.894;4.622;2022-11-04T07:25:59;9.90;99.90
38500;DHT22;24269;51.894;4.622;2022-11-04T07:28:25;9.90;99.90
38500;DHT22;24269;51.894;4.622;2022-11-04T07:30:53;9.90;99.90
38500;DHT22;24269;51.894;4.622;2022-11-04T07:33:19;10.00;99.90
38500;DHT22;24269;51.894;4.622;2022-11-04T07:35:45;9.90;99.90
38500;DHT22;24269;51.894;4.622;2022-11-04T07:38:12;9.90;99.90
38500;DHT22;24269;51.894;4.622;2022-11-04T07:40:38;9.90;99.90
38500;DHT22;24269;51.894;4.622;2022-11-04T07:43:04;10.00;99.90
38500;DHT22;24269;51.894;4.622;2022-11-04T07:45:31;9.90;99.90
38500;DHT22;24269;51.894;4.622;2022-11-04T07:47:57;9.90;99.90
38500;DHT22;24269;51.894;4.622;2022-11-04T07:50:24;9.90;99.90
38500;DHT22;24269;51.894;4.622;2022-11-04T07:52:49;9.90;99.90
38500;DHT22;24269;51.894;4.622;2022-11-04T07:55:19;9.80;99.90
38500;DHT22;24269;51.894;4.622;2022-11-04T07:57:48;9.90;99.90
38500;DHT22;24269;51.894;4.622;2022-11-04T08:00:14;9.90;99.90
38500;DHT22;24269;51.894;4.622;2022-11-04T08:02:44;9.90;99.90
38500;DHT22;24269;51.894;4.622;2022-11-04T08:05:12;9.90;99.90
38500;DHT22;24269;51.894;4.622;2022-11-04T08:07:38;10.00;99.90
38500;DHT22;24269;51.894;4.622;2022-11-04T08:10:04;10.00;99.90
38500;DHT22;24269;51.894;4.622;2022-11-04T08:12:30;10.00;99.90
38500;DHT22;24269;51.894;4.622;2022-11-04T08:14:58;9.90;99.90
38500;DHT22;24269;51.894;4.622;2022-11-04T08:17:24;9.90;99.90
38500;DHT22;24269;51.894;4.622;2022-11-04T08:19:50;10.00;99.90
38500;DHT22;24269;51.894;4.622;2022-11-04T08:22:15;10.00;99.90
38500;DHT22;24269;51.894;4.622;2022-11-04T08:24:41;10.20;99.90
38500;DHT22;24269;51.894;4.622;2022-11-04T08:27:07;10.30;99.90
38500;DHT22;24269;51.894;4.622;2022-11-04T08:29:35;10.50;99.90
38500;DHT22;24269;51.894;4.622;2022-11-04T08:32:01;10.60;99.90
38500;DHT22;24269;51.894;4.622;2022-11-04T08:34:27;10.80;99.90
38500;DHT22;24269;51.894;4.622;2022-11-04T08:36:53;10.90;99.90
38500;DHT22;24269;51.894;4.622;2022-11-04T08:39:22;11.10;99.90
38500;DHT22;24269;51.894;4.622;2022-11-04T08:41:49;11.30;99.90
38500;DHT22;24269;51.894;4.622;2022-11-04T08:44:17;11.40;99.90
38500;DHT22;24269;51.894;4.622;2022-11-04T08:46:44;11.60;99.90
38500;DHT22;24269;51.894;4.622;2022-11-04T08:49:10;11.70;99.90
38500;DHT22;24269;51.894;4.622;2022-11-04T08:51:38;11.90;99.90
38500;DHT22;24269;51.894;4.622;2022-11-04T08:54:05;12.00;99.90
38500;DHT22;24269;51.894;4.622;2022-11-04T08:56:33;12.20;99.90
38500;DHT22;24269;51.894;4.622;2022-11-04T08:59:00;12.30;99.90
38500;DHT22;24269;51.894;4.622;2022-11-04T09:01:31;12.50;99.90
38500;DHT22;24269;51.894;4.622;2022-11-04T09:03:57;12.70;99.90
38500;DHT22;24269;51.894;4.622;2022-11-04T09:06:28;12.80;99.90
38500;DHT22;24269;51.894;4.622;2022-11-04T09:08:53;12.90;99.90
38500;DHT22;24269;51.894;4.622;2022-11-04T09:11:22;13.00;99.90
38500;DHT22;24269;51.894;4.622;2022-11-04T09:13:47;12.90;99.90
38500;DHT22;24269;51.894;4.622;2022-11-04T09:16:13;13.00;99.90
38500;DHT22;24269;51.894;4.622;2022-11-04T09:18:39;13.00;99.90
38500;DHT22;24269;51.894;4.622;2022-11-04T09:21:07;13.10;99.90
38500;DHT22;24269;51.894;4.622;2022-11-04T09:23:33;13.30;99.90
38500;DHT22;24269;51.894;4.622;2022-11-04T09:26:09;13.30;99.90
38500;DHT22;24269;51.894;4.622;2022-11-04T09:28:35;13.40;99.90
38500;DHT22;24269;51.894;4.622;2022-11-04T09:31:06;13.40;99.90
38500;DHT22;24269;51.894;4.622;2022-11-04T09:33:31;13.60;99.90
38500;DHT22;24269;51.894;4.622;2022-11-04T09:35:57;13.70;99.90
38500;DHT22;24269;51.894;4.622;2022-11-04T09:38:27;13.80;99.90
38500;DHT22;24269;51.894;4.622;2022-11-04T09:40:52;13.80;99.90
38500;DHT22;24269;51.894;4.622;2022-11-04T09:45:58;13.90;99.90
38500;DHT22;24269;51.894;4.622;2022-11-04T09:48:25;14.00;99.90
38500;DHT22;24269;51.894;4.622;2022-11-04T09:50:59;14.10;99.90
38500;DHT22;24269;51.894;4.622;2022-11-04T09:53:48;14.30;99.90
38500;DHT22;24269;51.894;4.622;2022-11-04T09:56:22;14.50;99.90
38500;DHT22;24269;51.894;4.622;2022-11-04T09:58:49;14.70;99.90
38500;DHT22;24269;51.894;4.622;2022-11-04T10:11:57;14.20;99.90
38500;DHT22;24269;51.894;4.622;2022-11-04T10:17:15;14.00;99.90
38500;DHT22;24269;51.894;4.622;2022-11-04T10:22:37;13.80;99.90
38500;DHT22;24269;51.894;4.622;2022-11-04T10:25:13;13.80;99.90
38500;DHT22;24269;51.894;4.622;2022-11-04T10:27:42;13.70;99.90
38500;DHT22;24269;51.894;4.622;2022-11-04T10:30:15;13.70;99.90
38500;DHT22;24269;51.894;4.622;2022-11-04T10:33:07;13.70;99.90
38500;DHT22;24269;51.894;4.622;2022-11-04T10:35:43;13.50;99.90
38500;DHT22;24269;51.894;4.622;2022-11-04T10:40:45;13.40;99.90
38500;DHT22;24269;51.894;4.622;2022-11-04T10:43:16;13.40;99.90
38500;DHT22;24269;51.894;4.622;2022-11-04T10:46:02;13.40;99.90
38500;DHT22;24269;51.894;4.622;2022-11-04T10:48:42;13.50;99.90
38500;DHT22;24269;51.894;4.622;2022-11-04T10:51:13;13.50;99.90
38500;DHT22;24269;51.894;4.622;2022-11-04T10:53:44;13.50;99.90
38500;DHT22;24269;51.894;4.622;2022-11-04T10:56:19;13.50;99.90
38500;DHT22;24269;51.894;4.622;2022-11-04T10:58:47;13.60;99.90
38500;DHT22;24269;51.894;4.622;2022-11-04T11:03:34;13.70;99.90
38500;DHT22;24269;51.894;4.622;2022-11-04T11:06:14;13.70;99.90
38500;DHT22;24269;51.894;4.622;2022-11-04T11:08:43;13.80;99.90
38500;DHT22;24269;51.894;4.622;2022-11-04T11:11:11;13.90;99.90
38500;DHT22;24269;51.894;4.622;2022-11-04T11:13:40;13.90;99.90
38500;DHT22;24269;51.894;4.622;2022-11-04T11:16:27;14.00;99.90
38500;DHT22;24269;51.894;4.622;2022-11-04T11:19:15;14.10;99.90
38500;DHT22;24269;51.894;4.622;2022-11-04T11:21:53;14.30;99.90
38500;DHT22;24269;51.894;4.622;2022-11-04T11:24:28;14.40;99.90
38500;DHT22;24269;51.894;4.622;2022-11-04T11:27:00;14.60;99.90
38500;DHT22;24269;51.894;4.622;2022-11-04T11:29:30;14.90;99.90
38500;DHT22;24269;51.894;4.622;2022-11-04T11:32:05;15.30;99.90
38500;DHT22;24269;51.894;4.622;2022-11-04T11:34:40;15.70;99.90
38500;DHT22;24269;51.894;4.622;2022-11-04T11:37:20;16.10;99.90
38500;DHT22;24269;51.894;4.622;2022-11-04T11:39:46;16.30;99.90
38500;DHT22;24269;51.894;4.622;2022-11-04T11:42:13;16.40;99.90
38500;DHT22;24269;51.894;4.622;2022-11-04T11:44:54;16.20;99.90
38500;DHT22;24269;51.894;4.622;2022-11-04T11:50:25;16.00;99.90
38500;DHT22;24269;51.894;4.622;2022-11-04T11:53:16;15.80;99.90
38500;DHT22;24269;51.894;4.622;2022-11-04T11:56:05;15.70;99.90
38500;DHT22;24269;51.894;4.622;2022-11-04T11:58:45;15.40;99.90
38500;DHT22;24269;51.894;4.622;2022-11-04T12:04:33;15.00;99.90
38500;DHT22;24269;51.894;4.622;2022-11-04T12:07:23;14.90;99.90
38500;DHT22;24269;51.894;4.622;2022-11-04T12:10:34;14.70;99.90
38500;DHT22;24269;51.894;4.622;2022-11-04T12:18:41;14.50;99.90
38500;DHT22;24269;51.894;4.622;2022-11-04T12:21:16;14.50;99.90
38500;DHT22;24269;51.894;4.622;2022-11-04T12:24:23;14.50;99.90
38500;DHT22;24269;51.894;4.622;2022-11-04T12:27:10;14.50;99.90
38500;DHT22;24269;51.894;4.622;2022-11-04T12:30:10;14.40;99.90
38500;DHT22;24269;51.894;4.622;2022-11-04T12:36:10;14.10;99.90
38500;DHT22;24269;51.894;4.622;2022-11-04T12:40:47;14.30;99.90
38500;DHT22;24269;51.894;4.622;2022-11-04T12:43:37;14.40;99.90
38500;DHT22;24269;51.894;4.622;2022-11-04T12:46:37;14.50;99.90
38500;DHT22;24269;51.894;4.622;2022-11-04T12:54:52;13.90;99.90
38500;DHT22;24269;51.894;4.622;2022-11-04T13:00:23;13.70;99.90
38500;DHT22;24269;51.894;4.622;2022-11-04T13:08:03;13.40;99.90
38500;DHT22;24269;51.894;4.622;2022-11-04T13:10:48;13.30;99.90
38500;DHT22;24269;51.894;4.622;2022-11-04T13:13:19;13.20;99.90
38500;DHT22;24269;51.894;4.622;2022-11-04T13:15:50;13.20;99.90
38500;DHT22;24269;51.894;4.622;2022-11-04T13:18:20;13.20;99.90
38500;DHT22;24269;51.894;4.622;2022-11-04T13:24:03;13.30;99.90
38500;DHT22;24269;51.894;4.622;2022-11-04T13:26:31;13.20;99.90
38500;DHT22;24269;51.894;4.622;2022-11-04T13:29:05;13.20;99.90
38500;DHT22;24269;51.894;4.622;2022-11-04T13:35:36;13.10;99.90
38500;DHT22;24269;51.894;4.622;2022-11-04T13:37:39;13.10;99.90
38500;DHT22;24269;51.894;4.622;2022-11-04T13:40:18;13.10;99.90
38500;DHT22;24269;51.894;4.622;2022-11-04T13:45:53;13.50;99.90
38500;DHT22;24269;51.894;4.622;2022-11-04T13:48:23;13.60;99.90
38500;DHT22;24269;51.894;4.622;2022-11-04T13:50:56;13.60;99.90
38500;DHT22;24269;51.894;4.622;2022-11-04T13:53:49;13.60;99.90
38500;DHT22;24269;51.894;4.622;2022-11-04T13:56:37;13.60;99.90
38500;DHT22;24269;51.894;4.622;2022-11-04T13:59:21;13.40;99.90
38500;DHT22;24269;51.894;4.622;2022-11-04T14:01:48;13.30;99.90
38500;DHT22;24269;51.894;4.622;2022-11-04T14:04:34;13.20;99.90
38500;DHT22;24269;51.894;4.622;2022-11-04T14:07:04;13.10;99.90
38500;DHT22;24269;51.894;4.622;2022-11-04T14:14:42;13.00;99.90
38500;DHT22;24269;51.894;4.622;2022-11-04T14:20:22;12.80;99.90
38500;DHT22;24269;51.894;4.622;2022-11-04T14:22:57;12.80;99.90
38500;DHT22;24269;51.894;4.622;2022-11-04T14:28:17;12.60;99.90
38500;DHT22;24269;51.894;4.622;2022-11-04T14:30:53;12.60;99.90
38500;DHT22;24269;51.894;4.622;2022-11-04T14:33:38;12.50;99.90
38500;DHT22;24269;51.894;4.622;2022-11-04T14:46:52;12.30;99.90
38500;DHT22;24269;51.894;4.622;2022-11-04T14:54:49;12.20;99.90
38500;DHT22;24269;51.894;4.622;2022-11-04T14:57:22;12.10;99.90
38500;DHT22;24269;51.894;4.622;2022-11-04T14:59:47;12.00;99.90
38500;DHT22;24269;51.894;4.622;2022-11-04T15:02:28;12.00;99.90
38500;DHT22;24269;51.894;4.622;2022-11-04T15:04:58;12.00;99.90
38500;DHT22;24269;51.894;4.622;2022-11-04T15:07:36;11.90;99.90
38500;DHT22;24269;51.894;4.622;2022-11-04T15:10:22;11.90;99.90
38500;DHT22;24269;51.894;4.622;2022-11-04T15:12:50;11.80;99.90
38500;DHT22;24269;51.894;4.622;2022-11-04T15:15:32;11.80;99.90
38500;DHT22;24269;51.894;4.622;2022-11-04T15:18:06;11.80;99.90
38500;DHT22;24269;51.894;4.622;2022-11-04T15:20:36;11.70;99.90
38500;DHT22;24269;51.894;4.622;2022-11-04T15:23:03;11.70;99.90
38500;DHT22;24269;51.894;4.622;2022-11-04T15:25:31;11.60;99.90
38500;DHT22;24269;51.894;4.622;2022-11-04T15:27:58;11.60;99.90
38500;DHT22;24269;51.894;4.622;2022-11-04T15:30:27;11.60;99.90
38500;DHT22;24269;51.894;4.622;2022-11-04T15:32:55;11.60;99.90
38500;DHT22;24269;51.894;4.622;2022-11-04T15:35:21;11.60;99.90
38500;DHT22;24269;51.894;4.622;2022-11-04T15:37:47;11.60;99.90
38500;DHT22;24269;51.894;4.622;2022-11-04T15:40:14;11.60;99.90
38500;DHT22;24269;51.894;4.622;2022-11-04T15:42:42;11.60;99.90
38500;DHT22;24269;51.894;4.622;2022-11-04T15:45:29;11.60;99.90
38500;DHT22;24269;51.894;4.622;2022-11-04T15:50:46;11.60;99.90
38500;DHT22;24269;51.894;4.622;2022-11-04T15:53:14;11.60;99.90
38500;DHT22;24269;51.894;4.622;2022-11-04T15:55:40;11.50;99.90
38500;DHT22;24269;51.894;4.622;2022-11-04T15:58:12;11.50;99.90
38500;DHT22;24269;51.894;4.622;2022-11-04T16:00:39;11.50;99.90
38500;DHT22;24269;51.894;4.622;2022-11-04T16:03:05;11.50;99.90
38500;DHT22;24269;51.894;4.622;2022-11-04T16:05:35;11.40;99.90
38500;DHT22;24269;51.894;4.622;2022-11-04T16:08:19;11.40;99.90
38500;DHT22;24269;51.894;4.622;2022-11-04T16:10:45;11.40;99.90
38500;DHT22;24269;51.894;4.622;2022-11-04T16:18:21;11.40;99.90
38500;DHT22;24269;51.894;4.622;2022-11-04T16:20:48;11.40;99.90
38500;DHT22;24269;51.894;4.622;2022-11-04T16:23:20;11.40;99.90
38500;DHT22;24269;51.894;4.622;2022-11-04T16:25:46;11.40;99.90
38500;DHT22;24269;51.894;4.622;2022-11-04T16:28:22;11.40;99.90
38500;DHT22;24269;51.894;4.622;2022-11-04T16:31:01;11.30;99.90
38500;DHT22;24269;51.894;4.622;2022-11-04T16:33:28;11.30;99.90
38500;DHT22;24269;51.894;4.622;2022-11-04T16:35:54;11.30;99.90
38500;DHT22;24269;51.894;4.622;2022-11-04T16:38:20;11.20;99.90
38500;DHT22;24269;51.894;4.622;2022-11-04T16:40:47;11.20;99.90
38500;DHT22;24269;51.894;4.622;2022-11-04T16:43:16;11.20;99.90
38500;DHT22;24269;51.894;4.622;2022-11-04T16:45:45;11.10;99.90
38500;DHT22;24269;51.894;4.622;2022-11-04T16:48:20;11.10;99.90
38500;DHT22;24269;51.894;4.622;2022-11-04T16:50:48;11.00;99.90
38500;DHT22;24269;51.894;4.622;2022-11-04T16:53:14;11.00;99.90
38500;DHT22;24269;51.894;4.622;2022-11-04T16:55:41;11.00;99.90
38500;DHT22;24269;51.894;4.622;2022-11-04T16:58:14;10.90;99.90
38500;DHT22;24269;51.894;4.622;2022-11-04T17:00:41;10.90;99.90
38500;DHT22;24269;51.894;4.622;2022-11-04T17:03:15;10.90;99.90
38500;DHT22;24269;51.894;4.622;2022-11-04T17:05:50;10.80;99.90
38500;DHT22;24269;51.894;4.622;2022-11-04T17:08:16;10.80;99.90
38500;DHT22;24269;51.894;4.622;2022-11-04T17:10:41;10.80;99.90
38500;DHT22;24269;51.894;4.622;2022-11-04T17:13:09;10.70;99.90
38500;DHT22;24269;51.894;4.622;2022-11-04T17:15:35;10.70;99.90
38500;DHT22;24269;51.894;4.622;2022-11-04T17:18:00;10.60;99.90
38500;DHT22;24269;51.894;4.622;2022-11-04T17:20:26;10.60;99.90
38500;DHT22;24269;51.894;4.622;2022-11-04T17:22:51;10.60;99.90
38500;DHT22;24269;51.894;4.622;2022-11-04T17:25:18;10.50;99.90
38500;DHT22;24269;51.894;4.622;2022-11-04T17:27:44;10.50;99.90
38500;DHT22;24269;51.894;4.622;2022-11-04T17:30:10;10.50;99.90
38500;DHT22;24269;51.894;4.622;2022-11-04T17:32:40;10.50;99.90
38500;DHT22;24269;51.894;4.622;2022-11-04T17:35:06;10.40;99.90
38500;DHT22;24269;51.894;4.622;2022-11-04T17:37:32;10.30;99.90
38500;DHT22;24269;51.894;4.622;2022-11-04T17:39:58;10.30;99.90
38500;DHT22;24269;51.894;4.622;2022-11-04T17:42:24;10.30;99.90
38500;DHT22;24269;51.894;4.622;2022-11-04T17:45:08;10.30;99.90
38500;DHT22;24269;51.894;4.622;2022-11-04T17:47:35;10.30;99.90
38500;DHT22;24269;51.894;4.622;2022-11-04T17:50:01;10.30;99.90
38500;DHT22;24269;51.894;4.622;2022-11-04T17:52:27;10.30;99.90
38500;DHT22;24269;51.894;4.622;2022-11-04T17:54:53;10.30;99.90
38500;DHT22;24269;51.894;4.622;2022-11-04T17:57:18;10.40;99.90
38500;DHT22;24269;51.894;4.622;2022-11-04T17:59:44;10.50;99.90
38500;DHT22;24269;51.894;4.622;2022-11-04T18:02:09;10.50;99.90
38500;DHT22;24269;51.894;4.622;2022-11-04T18:04:35;10.50;99.90
38500;DHT22;24269;51.894;4.622;2022-11-04T18:07:01;10.50;99.90
38500;DHT22;24269;51.894;4.622;2022-11-04T18:09:28;10.50;99.90
38500;DHT22;24269;51.894;4.622;2022-11-04T18:11:54;10.40;99.90
38500;DHT22;24269;51.894;4.622;2022-11-04T18:14:38;10.30;99.90